createdAt,value
2022-10-08T00:01:16.215Z,4.38
2022-10-08T00:03:45.899Z,4.88
2022-10-08T00:06:32.851Z,5.13
2022-10-08T00:09:05.940Z,5.10
2022-10-08T00:11:35.907Z,4.75
2022-10-08T00:14:03.104Z,4.47
2022-10-08T00:16:39.613Z,4.43
2022-10-08T00:19:13.746Z,4.40
2022-10-08T00:21:43.780Z,4.55
2022-10-08T00:24:16.957Z,3.83
2022-10-08T00:26:44.845Z,3.97
2022-10-08T00:29:15.868Z,4.90
2022-10-08T00:31:45.328Z,3.83
2022-10-08T00:34:16.152Z,4.15
2022-10-08T00:36:44.164Z,4.50
2022-10-08T00:39:16.581Z,5.10
2022-10-08T00:41:45.945Z,3.78
2022-10-08T00:44:47.309Z,4.85
2022-10-08T00:47:32.540Z,3.47
2022-10-08T00:50:08.884Z,3.85
2022-10-08T00:52:42.495Z,4.75
2022-10-08T00:55:10.174Z,4.22
2022-10-08T00:57:38.710Z,3.80
2022-10-08T01:00:15.943Z,4.78
2022-10-08T01:02:43.571Z,3.78
2022-10-08T01:05:13.918Z,3.13
2022-10-08T01:07:49.761Z,3.38
2022-10-08T01:10:43.645Z,3.55
2022-10-08T01:13:30.247Z,2.95
2022-10-08T01:16:21.315Z,3.38
2022-10-08T01:19:02.543Z,3.72
2022-10-08T01:21:47.498Z,3.00
2022-10-08T01:24:57.734Z,3.50
2022-10-08T01:27:28.345Z,2.75
2022-10-08T01:29:57.041Z,4.43
2022-10-08T01:32:34.839Z,3.30
2022-10-08T01:35:05.725Z,2.85
2022-10-08T01:37:38.728Z,3.10
2022-10-08T01:40:13.647Z,2.97
2022-10-08T01:42:41.408Z,3.00
2022-10-08T01:45:17.232Z,3.28
2022-10-08T01:47:47.632Z,3.13
2022-10-08T01:50:27.046Z,2.60
2022-10-08T01:52:59.209Z,4.13
2022-10-08T01:55:31.751Z,3.08
2022-10-08T02:00:32.161Z,2.58
2022-10-08T02:02:59.133Z,2.35
2022-10-08T02:05:29.710Z,2.75
2022-10-08T02:07:56.751Z,3.13
2022-10-08T02:10:26.135Z,3.00
2022-10-08T02:12:53.240Z,2.85
2022-10-08T02:15:22.325Z,3.13
2022-10-08T02:17:55.558Z,2.90
2022-10-08T02:20:35.396Z,3.15
2022-10-08T02:23:11.709Z,3.00
2022-10-08T02:25:43.900Z,3.15
2022-10-08T02:28:16.955Z,2.88
2022-10-08T02:30:50.546Z,2.63
2022-10-08T02:33:31.028Z,2.92
2022-10-08T02:36:00.357Z,2.63
2022-10-08T02:38:38.316Z,2.92
2022-10-08T02:41:08.536Z,2.78
2022-10-08T02:43:41.886Z,2.65
2022-10-08T02:46:17.192Z,2.78
2022-10-08T02:48:50.853Z,2.40
2022-10-08T02:51:19.027Z,2.67
2022-10-08T02:53:48.202Z,2.40
2022-10-08T02:56:24.771Z,2.78
2022-10-08T02:58:52.484Z,2.55
2022-10-08T03:01:36.737Z,3.15
2022-10-08T03:04:13.111Z,2.55
2022-10-08T03:06:40.268Z,3.13
2022-10-08T03:09:10.581Z,2.70
2022-10-08T03:11:38.340Z,3.25
2022-10-08T03:14:09.255Z,3.15
2022-10-08T03:16:41.004Z,2.53
2022-10-08T03:19:10.358Z,2.20
2022-10-08T03:21:40.002Z,2.33
2022-10-08T03:24:08.905Z,2.83
2022-10-08T03:26:36.341Z,2.25
2022-10-08T03:29:04.690Z,3.42
2022-10-08T03:31:32.249Z,3.95
2022-10-08T03:33:59.393Z,2.85
2022-10-08T03:36:26.384Z,3.17
2022-10-08T03:38:53.458Z,2.95
2022-10-08T03:41:20.464Z,2.13
2022-10-08T03:43:47.446Z,2.60
2022-10-08T03:46:15.402Z,3.15
2022-10-08T03:48:43.198Z,2.50
2022-10-08T03:51:14.449Z,3.45
2022-10-08T03:53:43.213Z,2.92
2022-10-08T03:56:15.487Z,2.97
2022-10-08T03:58:42.942Z,2.80
2022-10-08T04:01:15.956Z,2.60
2022-10-08T04:03:45.295Z,2.80
2022-10-08T04:06:12.567Z,3.33
2022-10-08T04:08:40.041Z,3.20
2022-10-08T04:11:10.115Z,2.88
2022-10-08T04:13:37.979Z,3.60
2022-10-08T04:16:13.276Z,3.05
2022-10-08T04:18:40.414Z,2.55
2022-10-08T04:21:11.957Z,3.10
2022-10-08T04:23:40.543Z,2.83
2022-10-08T04:26:09.426Z,3.88
2022-10-08T04:28:38.997Z,3.60
2022-10-08T04:31:09.828Z,3.42
2022-10-08T04:33:37.568Z,3.63
2022-10-08T04:36:13.514Z,3.53
2022-10-08T04:38:42.620Z,3.17
2022-10-08T04:41:18.102Z,2.40
2022-10-08T04:43:46.224Z,3.17
2022-10-08T04:46:15.498Z,2.97
2022-10-08T04:48:47.798Z,2.92
2022-10-08T04:51:15.192Z,2.50
2022-10-08T04:53:42.696Z,2.45
2022-10-08T04:56:19.017Z,3.08
2022-10-08T04:58:46.849Z,3.00
2022-10-08T05:01:16.595Z,2.67
2022-10-08T05:03:49.396Z,2.92
2022-10-08T05:06:19.782Z,2.90
2022-10-08T05:08:47.520Z,3.15
2022-10-08T05:11:15.878Z,2.70
2022-10-08T05:13:43.671Z,2.10
2022-10-08T05:16:13.280Z,2.60
2022-10-08T05:18:41.802Z,2.47
2022-10-08T05:21:12.340Z,2.40
2022-10-08T05:23:40.313Z,2.58
2022-10-08T05:26:18.671Z,2.28
2022-10-08T05:28:48.076Z,2.78
2022-10-08T05:31:16.097Z,2.60
2022-10-08T05:33:44.122Z,3.22
2022-10-08T05:36:17.913Z,2.38
2022-10-08T05:38:45.520Z,2.75
2022-10-08T05:41:15.708Z,2.80
2022-10-08T05:43:43.060Z,3.25
2022-10-08T05:46:10.972Z,2.72
2022-10-08T05:48:38.694Z,2.10
2022-10-08T05:51:14.183Z,2.95
2022-10-08T05:53:43.832Z,2.20
2022-10-08T05:56:12.418Z,2.50
2022-10-08T05:58:40.394Z,3.30
2022-10-08T06:01:22.175Z,2.30
2022-10-08T06:03:53.700Z,2.70
2022-10-08T06:06:22.708Z,3.67
2022-10-08T06:08:58.458Z,3.22
2022-10-08T06:11:26.567Z,2.22
2022-10-08T06:13:55.194Z,3.22
2022-10-08T06:16:23.037Z,2.92
2022-10-08T06:18:54.187Z,2.67
2022-10-08T06:21:24.323Z,2.90
2022-10-08T06:23:53.970Z,3.15
2022-10-08T06:26:22.702Z,2.60
2022-10-08T06:28:49.930Z,2.35
2022-10-08T06:31:17.792Z,3.25
2022-10-08T06:33:45.323Z,2.60
2022-10-08T06:36:23.537Z,3.88
2022-10-08T06:38:52.118Z,4.05
2022-10-08T06:41:20.047Z,4.57
2022-10-08T06:43:47.205Z,4.35
2022-10-08T06:46:15.071Z,5.93
2022-10-08T06:48:42.807Z,5.80
2022-10-08T06:51:13.120Z,6.68
2022-10-08T06:53:41.344Z,9.07
2022-10-08T06:56:12.544Z,11.48
2022-10-08T06:58:39.531Z,7.88
2022-10-08T07:01:13.654Z,6.97
2022-10-08T07:03:40.708Z,5.68
2022-10-08T07:06:10.708Z,6.38
2022-10-08T07:08:38.345Z,7.35
2022-10-08T07:11:13.272Z,6.35
2022-10-08T07:13:41.070Z,6.13
2022-10-08T07:16:20.527Z,5.93
2022-10-08T07:18:50.820Z,6.00
2022-10-08T07:21:20.499Z,4.43
2022-10-08T07:23:48.175Z,3.95
2022-10-08T07:26:23.509Z,4.93
2022-10-08T07:28:51.897Z,4.70
2022-10-08T07:31:22.112Z,4.53
2022-10-08T07:33:49.890Z,4.18
2022-10-08T07:36:22.047Z,4.63
2022-10-08T07:38:56.579Z,5.45
2022-10-08T07:41:24.027Z,4.63
2022-10-08T07:43:53.022Z,5.57
2022-10-08T07:46:20.839Z,4.78
2022-10-08T07:48:47.879Z,4.10
2022-10-08T07:51:20.379Z,3.80
2022-10-08T07:53:47.464Z,4.07
2022-10-08T07:56:17.053Z,4.22
2022-10-08T07:58:44.511Z,7.30
2022-10-08T08:01:14.593Z,7.32
2022-10-08T08:03:42.318Z,6.28
2022-10-08T08:06:15.071Z,7.22
2022-10-08T08:08:44.631Z,5.72
2022-10-08T08:11:15.027Z,4.45
2022-10-08T08:13:42.803Z,4.43
2022-10-08T08:16:14.134Z,5.70
2022-10-08T08:18:43.819Z,8.10
2022-10-08T08:21:13.406Z,5.07
2022-10-08T08:23:43.379Z,4.13
2022-10-08T08:26:19.468Z,3.33
2022-10-08T08:28:54.540Z,3.83
2022-10-08T08:31:29.898Z,3.83
2022-10-08T08:34:00.696Z,4.25
2022-10-08T08:36:30.681Z,5.43
2022-10-08T08:38:58.342Z,5.05
2022-10-08T08:41:48.427Z,3.78
2022-10-08T08:44:24.421Z,3.95
2022-10-08T08:47:19.099Z,3.53
2022-10-08T08:49:49.191Z,3.63
2022-10-08T08:52:19.421Z,3.95
2022-10-08T08:54:49.365Z,4.10
2022-10-08T08:57:16.451Z,4.82
2022-10-08T08:59:47.117Z,3.78
2022-10-08T09:02:26.474Z,4.32
2022-10-08T09:05:00.485Z,4.35
2022-10-08T09:07:36.479Z,4.68
2022-10-08T09:10:09.296Z,4.70
2022-10-08T09:12:41.717Z,4.75
2022-10-08T09:15:22.054Z,5.50
2022-10-08T09:17:54.749Z,6.38
2022-10-08T09:22:52.207Z,5.55
2022-10-08T09:25:24.655Z,6.05
2022-10-08T09:27:57.746Z,6.78
2022-10-08T09:30:24.731Z,6.03
2022-10-08T09:32:58.739Z,6.10
2022-10-08T09:35:26.208Z,6.05
2022-10-08T09:37:56.359Z,6.28
2022-10-08T09:40:26.160Z,7.47
2022-10-08T09:43:13.823Z,6.43
2022-10-08T09:45:42.274Z,6.95
2022-10-08T09:48:17.705Z,7.38
2022-10-08T09:50:54.654Z,8.32
2022-10-08T09:53:24.130Z,7.07
2022-10-08T09:56:10.649Z,7.25
2022-10-08T09:58:50.919Z,7.38
2022-10-08T10:01:19.290Z,8.63
2022-10-08T10:03:53.487Z,7.72
2022-10-08T10:06:29.882Z,7.07
2022-10-08T10:09:10.705Z,7.30
2022-10-08T10:11:47.805Z,7.90
2022-10-08T10:14:14.744Z,7.75
2022-10-08T10:16:45.209Z,8.90
2022-10-08T10:19:18.240Z,6.78
2022-10-08T10:22:07.762Z,7.15
2022-10-08T10:25:13.206Z,4.75
2022-10-08T10:27:51.293Z,4.00
2022-10-08T10:30:22.037Z,4.28
2022-10-08T10:33:02.619Z,4.00
2022-10-08T10:35:32.311Z,2.78
2022-10-08T10:38:06.691Z,3.60
2022-10-08T10:40:47.582Z,2.90
2022-10-08T10:43:39.793Z,2.30
2022-10-08T10:46:13.692Z,2.70
2022-10-08T10:48:41.052Z,3.50
2022-10-08T10:51:22.363Z,2.30
2022-10-08T10:54:36.085Z,3.42
2022-10-08T10:57:29.855Z,2.45
2022-10-08T11:00:09.570Z,3.25
2022-10-08T11:03:06.828Z,2.80
2022-10-08T11:05:37.073Z,2.00
2022-10-08T11:08:34.822Z,2.33
2022-10-08T11:11:33.043Z,1.77
2022-10-08T11:14:14.491Z,2.58
2022-10-08T11:16:56.679Z,2.65
2022-10-08T11:19:43.863Z,2.30
2022-10-08T11:22:34.819Z,2.20
2022-10-08T11:25:07.838Z,1.55
2022-10-08T11:27:49.752Z,1.70
2022-10-08T11:30:32.281Z,1.65
2022-10-08T11:32:59.567Z,2.03
2022-10-08T11:35:47.546Z,2.58
2022-10-08T11:38:25.205Z,2.65
2022-10-08T11:40:56.261Z,1.85
2022-10-08T11:43:38.257Z,1.50
2022-10-08T11:46:23.304Z,1.23
2022-10-08T11:48:50.597Z,1.52
2022-10-08T11:51:20.587Z,1.90
2022-10-08T11:54:05.065Z,1.65
2022-10-08T11:56:34.296Z,1.80
2022-10-08T11:59:09.428Z,1.50
2022-10-08T12:01:50.787Z,1.55
2022-10-08T12:04:36.098Z,2.47
2022-10-08T12:07:03.057Z,1.35
2022-10-08T12:10:02.007Z,1.98
2022-10-08T12:12:50.873Z,1.58
2022-10-08T12:15:40.193Z,1.30
2022-10-08T12:18:10.049Z,1.10
2022-10-08T12:20:39.446Z,1.25
2022-10-08T12:23:21.773Z,1.40
2022-10-08T12:26:00.945Z,1.05
2022-10-08T12:28:27.987Z,1.25
2022-10-08T12:31:03.034Z,1.70
2022-10-08T12:33:30.684Z,1.30
2022-10-08T12:36:09.706Z,1.48
2022-10-08T12:38:45.903Z,1.35
2022-10-08T12:41:22.857Z,1.10
2022-10-08T12:43:52.811Z,1.42
2022-10-08T12:46:50.515Z,1.33
2022-10-08T12:49:41.478Z,1.60
2022-10-08T12:52:11.487Z,1.70
2022-10-08T12:54:41.366Z,1.48
2022-10-08T12:57:11.604Z,1.90
2022-10-08T12:59:42.225Z,1.40
2022-10-08T13:02:37.379Z,1.70
2022-10-08T13:05:06.956Z,1.75
2022-10-08T13:07:35.702Z,2.20
2022-10-08T13:10:19.187Z,1.80
2022-10-08T13:13:00.045Z,1.15
2022-10-08T13:15:27.177Z,1.77
2022-10-08T13:17:54.363Z,2.30
2022-10-08T13:20:23.125Z,1.85
2022-10-08T13:22:51.056Z,1.60
2022-10-08T13:25:50.413Z,1.33
2022-10-08T13:28:41.629Z,1.65
2022-10-08T13:31:23.557Z,2.13
2022-10-08T13:33:51.005Z,1.58
2022-10-08T13:36:23.229Z,1.40
2022-10-08T13:38:50.461Z,1.85
2022-10-08T13:41:23.735Z,1.80
2022-10-08T13:43:51.216Z,1.65
2022-10-08T13:46:18.329Z,1.27
2022-10-08T13:48:45.440Z,2.05
2022-10-08T13:51:12.494Z,1.30
2022-10-08T13:53:42.122Z,1.30
2022-10-08T13:56:09.330Z,1.73
2022-10-08T13:58:36.294Z,1.10
2022-10-08T14:01:03.448Z,1.00
2022-10-08T14:03:30.723Z,1.10
2022-10-08T14:05:57.745Z,1.40
2022-10-08T14:08:29.254Z,1.33
2022-10-08T14:10:59.962Z,1.50
2022-10-08T14:13:29.242Z,0.95
2022-10-08T14:15:56.451Z,0.95
2022-10-08T14:18:23.629Z,1.13
2022-10-08T14:20:51.463Z,1.15
2022-10-08T14:23:20.162Z,2.80
2022-10-08T14:25:47.163Z,1.02
2022-10-08T14:28:14.319Z,1.10
2022-10-08T14:30:41.519Z,1.73
2022-10-08T14:33:11.381Z,1.75
2022-10-08T14:35:39.297Z,0.90
2022-10-08T14:38:06.496Z,1.00
2022-10-08T14:40:33.709Z,1.15
2022-10-08T14:43:00.842Z,1.20
2022-10-08T14:45:27.866Z,0.73
2022-10-08T14:47:54.856Z,0.80
2022-10-08T14:50:21.847Z,0.82
2022-10-08T14:52:48.995Z,0.63
2022-10-08T14:55:16.205Z,0.63
2022-10-08T14:57:43.565Z,0.77
2022-10-08T15:00:12.979Z,1.85
2022-10-08T15:02:40.351Z,1.20
2022-10-08T15:05:07.742Z,1.02
2022-10-08T15:07:34.813Z,0.75
2022-10-08T15:10:01.909Z,0.90
2022-10-08T15:12:28.880Z,1.35
2022-10-08T15:14:55.852Z,0.85
2022-10-08T15:17:22.841Z,0.70
2022-10-08T15:19:49.794Z,0.75
2022-10-08T15:22:16.777Z,0.95
2022-10-08T15:24:43.755Z,1.40
2022-10-08T15:27:10.719Z,0.50
2022-10-08T15:29:37.711Z,0.77
2022-10-08T15:32:04.726Z,0.80
2022-10-08T15:34:31.724Z,1.02
2022-10-08T15:36:58.683Z,0.63
2022-10-08T15:39:25.690Z,0.47
2022-10-08T15:41:53.510Z,0.63
2022-10-08T15:44:22.026Z,0.60
2022-10-08T15:46:59.122Z,1.77
2022-10-08T15:49:31.193Z,0.90
2022-10-08T15:51:59.017Z,0.80
2022-10-08T15:54:25.987Z,1.08
2022-10-08T15:56:53.039Z,0.85
2022-10-08T15:59:20.279Z,0.57
2022-10-08T16:01:47.453Z,0.70
2022-10-08T16:04:14.691Z,0.70
2022-10-08T16:06:45.474Z,0.73
2022-10-08T16:09:17.466Z,0.90
2022-10-08T16:11:45.326Z,0.88
2022-10-08T16:14:24.342Z,0.82
2022-10-08T16:16:51.848Z,0.90
2022-10-08T16:19:24.389Z,1.02
2022-10-08T16:21:54.310Z,1.10
2022-10-08T16:24:21.364Z,1.00
2022-10-08T16:26:48.794Z,1.40
2022-10-08T16:29:17.141Z,1.13
2022-10-08T16:31:45.186Z,1.38
2022-10-08T16:34:23.625Z,1.52
2022-10-08T16:36:51.249Z,3.42
2022-10-08T16:39:21.015Z,2.05
2022-10-08T16:41:49.157Z,1.50
2022-10-08T16:44:18.205Z,1.80
2022-10-08T16:46:50.950Z,1.95
2022-10-08T16:49:25.363Z,1.45
2022-10-08T16:52:01.596Z,1.27
2022-10-08T16:54:29.055Z,1.23
2022-10-08T16:56:56.795Z,2.30
2022-10-08T16:59:26.161Z,3.75
2022-10-08T17:01:55.864Z,1.70
2022-10-08T17:04:24.879Z,3.33
2022-10-08T17:06:52.354Z,5.32
2022-10-08T17:09:20.564Z,4.72
2022-10-08T17:11:48.017Z,5.25
2022-10-08T17:14:15.357Z,6.10
2022-10-08T17:16:43.441Z,3.63
2022-10-08T17:19:10.710Z,7.88
2022-10-08T17:21:38.297Z,13.45
2022-10-08T17:24:05.818Z,7.03
2022-10-08T17:26:32.868Z,8.10
2022-10-08T17:29:09.088Z,6.60
2022-10-08T17:31:36.864Z,3.90
2022-10-08T17:34:05.191Z,3.15
2022-10-08T17:36:35.016Z,3.97
2022-10-08T17:39:04.414Z,4.85
2022-10-08T17:41:33.661Z,4.15
2022-10-08T17:44:03.587Z,5.18
2022-10-08T17:46:33.640Z,4.22
2022-10-08T17:49:00.952Z,3.65
2022-10-08T17:51:29.702Z,4.13
2022-10-08T17:53:59.178Z,4.72
2022-10-08T17:56:26.269Z,4.85
2022-10-08T17:58:54.023Z,5.28
2022-10-08T18:01:24.143Z,4.93
2022-10-08T18:03:53.821Z,4.43
2022-10-08T18:06:21.933Z,5.40
2022-10-08T18:08:53.766Z,5.85
2022-10-08T18:11:20.815Z,5.57
2022-10-08T18:13:47.874Z,4.80
2022-10-08T18:16:16.443Z,4.45
2022-10-08T18:18:44.916Z,3.63
2022-10-08T18:21:13.669Z,3.65
2022-10-08T18:23:42.789Z,4.18
2022-10-08T18:26:34.666Z,4.80
2022-10-08T18:29:04.797Z,5.50
2022-10-08T18:31:33.168Z,3.90
2022-10-08T18:34:02.869Z,3.63
2022-10-08T18:36:35.289Z,4.18
2022-10-08T18:39:05.401Z,4.53
2022-10-08T18:41:38.739Z,4.90
2022-10-08T18:44:07.298Z,4.95
2022-10-08T18:46:35.959Z,4.25
2022-10-08T18:49:04.240Z,4.32
2022-10-08T18:51:32.507Z,4.50
2022-10-08T18:54:01.967Z,3.70
2022-10-08T18:56:35.347Z,4.18
2022-10-08T18:59:07.895Z,3.80
2022-10-08T19:01:40.278Z,3.97
2022-10-08T19:04:11.678Z,5.95
2022-10-08T19:06:40.185Z,4.72
2022-10-08T19:09:07.270Z,5.28
2022-10-08T19:11:44.942Z,6.15
2022-10-08T19:14:16.971Z,6.35
2022-10-08T19:16:44.211Z,6.88
2022-10-08T19:19:22.527Z,5.88
2022-10-08T19:21:49.764Z,4.50
2022-10-08T19:24:19.752Z,5.80
2022-10-08T19:26:47.985Z,4.90
2022-10-08T19:29:23.260Z,4.75
2022-10-08T19:31:50.493Z,4.70
2022-10-08T19:34:20.478Z,5.30
2022-10-08T19:36:48.227Z,5.40
2022-10-08T19:39:18.301Z,6.38
2022-10-08T19:41:45.812Z,5.35
2022-10-08T19:44:13.041Z,4.55
2022-10-08T19:46:40.164Z,4.45
2022-10-08T19:49:07.941Z,4.25
2022-10-08T19:51:35.948Z,4.25
2022-10-08T19:54:03.951Z,4.63
2022-10-08T19:56:31.590Z,3.70
2022-10-08T19:58:59.296Z,4.63
2022-10-08T20:01:33.577Z,4.00
2022-10-08T20:04:03.046Z,4.45
2022-10-08T20:06:32.550Z,5.68
2022-10-08T20:09:01.865Z,5.40
2022-10-08T20:11:30.425Z,5.10
2022-10-08T20:13:58.823Z,4.55
2022-10-08T20:16:28.367Z,4.53
2022-10-08T20:19:01.630Z,5.00
2022-10-08T20:21:30.574Z,4.57
2022-10-08T20:23:57.819Z,4.40
2022-10-08T20:26:27.230Z,4.38
2022-10-08T20:29:00.234Z,3.90
2022-10-08T20:31:30.438Z,4.60
2022-10-08T20:34:00.205Z,4.80
2022-10-08T20:36:28.215Z,4.13
2022-10-08T20:38:56.388Z,4.80
2022-10-08T20:41:30.247Z,4.45
2022-10-08T20:44:02.795Z,5.60
2022-10-08T20:46:32.020Z,4.47
2022-10-08T20:48:59.335Z,4.20
2022-10-08T20:51:28.461Z,4.53
2022-10-08T20:53:58.661Z,4.78
2022-10-08T20:56:27.571Z,5.45
2022-10-08T20:58:55.534Z,5.95
2022-10-08T21:01:25.295Z,5.03
2022-10-08T21:03:54.395Z,5.00
2022-10-08T21:06:24.243Z,4.90
2022-10-08T21:08:53.725Z,4.30
2022-10-08T21:11:24.014Z,4.68
2022-10-08T21:13:51.924Z,4.85
2022-10-08T21:16:21.632Z,4.80
2022-10-08T21:18:50.480Z,4.88
2022-10-08T21:21:17.973Z,4.03
2022-10-08T21:23:45.612Z,4.45
2022-10-08T21:26:17.017Z,5.55
2022-10-08T21:28:45.968Z,4.68
2022-10-08T21:31:14.057Z,4.95
2022-10-08T21:33:43.796Z,5.57
2022-10-08T21:36:14.240Z,5.75
2022-10-08T21:38:41.545Z,4.57
2022-10-08T21:41:12.453Z,4.45
2022-10-08T21:43:40.349Z,3.50
2022-10-08T21:46:08.736Z,4.10
2022-10-08T21:48:35.938Z,4.93
2022-10-08T21:51:12.015Z,4.90
2022-10-08T21:53:43.695Z,5.10
2022-10-08T21:56:12.606Z,6.40
2022-10-08T21:58:42.130Z,6.72
2022-10-08T22:01:25.222Z,6.00
2022-10-08T22:03:55.436Z,6.22
2022-10-08T22:06:23.656Z,6.57
2022-10-08T22:08:51.404Z,6.05
2022-10-08T22:11:18.902Z,6.30
2022-10-08T22:13:46.327Z,6.20
2022-10-08T22:16:16.168Z,6.18
2022-10-08T22:18:43.485Z,5.78
2022-10-08T22:21:21.000Z,6.35
2022-10-08T22:23:49.131Z,6.55
2022-10-08T22:26:43.378Z,6.07
2022-10-08T22:29:11.121Z,6.97
2022-10-08T22:31:38.780Z,6.57
2022-10-08T22:34:07.056Z,6.88
2022-10-08T22:36:38.776Z,7.00
2022-10-08T22:39:06.727Z,7.80
2022-10-08T22:41:34.158Z,5.75
2022-10-08T22:44:02.704Z,5.47
2022-10-08T22:46:38.422Z,6.38
2022-10-08T22:49:08.581Z,7.63
2022-10-08T22:51:36.462Z,7.13
2022-10-08T22:54:03.698Z,6.43
2022-10-08T22:56:31.405Z,7.20
2022-10-08T22:58:59.522Z,6.32
2022-10-08T23:01:27.962Z,6.40
2022-10-08T23:03:55.673Z,7.93
2022-10-08T23:06:27.995Z,7.13
2022-10-08T23:08:58.490Z,7.88
2022-10-08T23:11:26.092Z,7.47
2022-10-08T23:13:55.718Z,6.72
2022-10-08T23:16:24.475Z,6.85
2022-10-08T23:18:57.028Z,5.47
2022-10-08T23:21:25.180Z,5.53
2022-10-08T23:23:53.761Z,5.05
2022-10-08T23:26:22.016Z,5.95
2022-10-08T23:28:51.143Z,4.97
2022-10-08T23:31:21.268Z,5.50
2022-10-08T23:33:50.392Z,5.40
2022-10-08T23:36:20.726Z,5.85
2022-10-08T23:38:48.135Z,5.47
2022-10-08T23:41:15.298Z,5.18
2022-10-08T23:43:44.902Z,6.60
2022-10-08T23:46:14.641Z,6.65
2022-10-08T23:48:42.138Z,5.55
2022-10-08T23:51:10.714Z,6.30
2022-10-08T23:53:38.269Z,6.65
2022-10-08T23:56:06.222Z,5.50
2022-10-08T23:58:33.750Z,5.55
